createdAt,value
2022-11-16T00:02:12.230Z,30.65
2022-11-16T00:04:41.971Z,28.45
2022-11-16T00:07:10.396Z,26.15
2022-11-16T00:09:40.311Z,23.50
2022-11-16T00:12:13.309Z,32.42
2022-11-16T00:14:41.385Z,28.58
2022-11-16T00:17:09.567Z,38.53
2022-11-16T00:19:37.809Z,28.42
2022-11-16T00:22:07.230Z,33.90
2022-11-16T00:24:35.436Z,36.67
2022-11-16T00:27:03.553Z,30.10
2022-11-16T00:29:31.609Z,32.20
2022-11-16T00:31:59.739Z,31.48
2022-11-16T00:34:28.788Z,32.95
2022-11-16T00:36:57.311Z,38.00
2022-11-16T00:39:26.704Z,30.67
2022-11-16T00:41:54.789Z,33.83
2022-11-16T00:44:22.883Z,31.85
2022-11-16T00:46:51.073Z,39.58
2022-11-16T00:49:19.125Z,33.03
2022-11-16T00:51:47.220Z,30.48
2022-11-16T00:54:15.348Z,31.50
2022-11-16T00:56:47.201Z,28.90
2022-11-16T00:59:15.783Z,29.60
2022-11-16T01:01:44.071Z,34.70
2022-11-16T01:04:12.450Z,31.50
2022-11-16T01:06:40.469Z,25.98
2022-11-16T01:09:10.828Z,26.15
2022-11-16T01:11:56.505Z,27.75
2022-11-16T01:14:25.871Z,31.30
2022-11-16T01:16:54.005Z,29.75
2022-11-16T01:19:22.059Z,29.35
2022-11-16T01:21:50.276Z,31.30
2022-11-16T01:24:18.328Z,33.20
2022-11-16T01:26:46.476Z,29.60
2022-11-16T01:29:14.829Z,30.20
2022-11-16T01:31:49.531Z,31.38
2022-11-16T01:34:18.020Z,32.70
2022-11-16T01:36:46.582Z,30.50
2022-11-16T01:39:15.826Z,35.42
2022-11-16T01:41:57.153Z,35.17
2022-11-16T01:44:56.158Z,33.10
2022-11-16T01:47:25.612Z,33.15
2022-11-16T01:49:59.258Z,28.98
2022-11-16T01:52:36.022Z,32.45
2022-11-16T01:55:06.159Z,31.98
2022-11-16T01:57:48.247Z,33.83
2022-11-16T02:00:18.752Z,28.50
2022-11-16T02:03:00.096Z,29.08
2022-11-16T02:06:06.399Z,30.63
2022-11-16T02:09:06.638Z,27.88
2022-11-16T02:12:00.107Z,30.48
2022-11-16T02:14:43.113Z,31.58
2022-11-16T02:17:25.240Z,28.45
2022-11-16T02:20:30.756Z,30.65
2022-11-16T02:23:17.638Z,32.20
2022-11-16T02:25:54.713Z,33.08
2022-11-16T02:28:35.350Z,32.47
2022-11-16T02:31:08.276Z,30.13
2022-11-16T02:33:39.624Z,34.60
2022-11-16T02:36:11.580Z,31.27
2022-11-16T02:38:44.014Z,37.95
2022-11-16T02:41:15.558Z,36.78
2022-11-16T02:43:45.940Z,35.85
2022-11-16T02:46:21.041Z,33.80
2022-11-16T02:48:52.334Z,37.30
2022-11-16T02:51:21.947Z,39.40
2022-11-16T02:54:02.106Z,37.10
2022-11-16T02:56:31.283Z,37.60
2022-11-16T02:59:00.483Z,36.67
2022-11-16T03:01:39.273Z,35.53
2022-11-16T03:04:13.454Z,35.50
2022-11-16T03:06:44.586Z,29.73
2022-11-16T03:09:17.000Z,37.85
2022-11-16T03:11:59.785Z,35.70
2022-11-16T03:14:35.271Z,33.83
2022-11-16T03:17:10.713Z,36.00
2022-11-16T03:19:45.043Z,36.67
2022-11-16T03:22:16.348Z,31.55
2022-11-16T03:24:44.994Z,32.70
2022-11-16T03:27:20.879Z,30.67
2022-11-16T03:30:00.107Z,32.72
2022-11-16T03:32:35.492Z,35.10
2022-11-16T03:35:15.353Z,29.42
2022-11-16T03:37:45.435Z,33.33
2022-11-16T03:40:15.794Z,27.17
2022-11-16T03:42:44.767Z,31.45
2022-11-16T03:45:14.447Z,29.55
2022-11-16T03:47:44.554Z,37.30
2022-11-16T03:50:12.600Z,30.95
2022-11-16T03:52:41.707Z,31.17
2022-11-16T03:55:10.439Z,31.88
2022-11-16T03:57:38.482Z,31.40
2022-11-16T04:00:08.109Z,38.15
2022-11-16T04:02:44.497Z,36.45
2022-11-16T04:05:36.433Z,32.55
2022-11-16T04:08:22.583Z,34.88
2022-11-16T04:11:08.112Z,34.30
2022-11-16T04:13:54.402Z,35.25
2022-11-16T04:16:41.152Z,35.38
2022-11-16T04:19:29.039Z,36.90
2022-11-16T04:22:17.545Z,36.88
2022-11-16T04:24:49.864Z,41.65
2022-11-16T04:27:35.815Z,37.03
2022-11-16T04:30:05.504Z,40.72
2022-11-16T04:32:52.903Z,44.67
2022-11-16T04:35:41.888Z,43.78
2022-11-16T04:38:11.118Z,46.35
2022-11-16T04:40:39.699Z,42.58
2022-11-16T04:43:07.333Z,43.33
2022-11-16T04:45:56.820Z,49.28
2022-11-16T04:48:29.757Z,48.20
2022-11-16T04:51:01.400Z,54.25
2022-11-16T04:53:29.455Z,51.20
2022-11-16T04:56:06.019Z,43.70
2022-11-16T04:58:34.939Z,53.33
2022-11-16T05:01:03.766Z,52.38
2022-11-16T05:03:32.050Z,45.90
2022-11-16T05:06:01.319Z,45.63
2022-11-16T05:08:29.999Z,46.92
2022-11-16T05:10:59.333Z,47.95
2022-11-16T05:13:27.861Z,47.97
2022-11-16T05:15:55.968Z,42.17
2022-11-16T05:18:24.548Z,41.10
2022-11-16T05:21:00.708Z,44.05
2022-11-16T05:23:50.479Z,44.83
2022-11-16T05:26:21.654Z,51.72
2022-11-16T05:28:50.266Z,44.40
2022-11-16T05:31:18.250Z,47.75
2022-11-16T05:33:46.317Z,54.67
2022-11-16T05:36:19.398Z,51.30
2022-11-16T05:38:51.615Z,45.85
2022-11-16T05:41:24.761Z,52.47
2022-11-16T05:43:55.174Z,47.67
2022-11-16T05:46:23.956Z,47.03
2022-11-16T05:48:52.410Z,47.60
2022-11-16T05:51:20.489Z,53.65
2022-11-16T05:53:50.349Z,49.60
2022-11-16T05:56:22.589Z,56.58
2022-11-16T05:58:51.297Z,53.60
2022-11-16T06:01:19.284Z,51.30
2022-11-16T06:03:49.887Z,51.60
2022-11-16T06:06:19.903Z,47.50
2022-11-16T06:08:50.437Z,52.42
2022-11-16T06:11:25.052Z,50.72
2022-11-16T06:13:53.223Z,44.20
2022-11-16T06:16:21.525Z,45.17
2022-11-16T06:18:49.661Z,47.30
2022-11-16T06:21:20.782Z,43.35
2022-11-16T06:23:50.773Z,46.95
2022-11-16T06:26:19.237Z,45.15
2022-11-16T06:28:48.147Z,49.60
2022-11-16T06:31:16.211Z,45.85
2022-11-16T06:33:45.600Z,41.67
2022-11-16T06:36:22.415Z,46.05
2022-11-16T06:38:52.477Z,46.97
2022-11-16T06:41:23.578Z,46.88
2022-11-16T06:43:52.483Z,51.72
2022-11-16T06:46:25.515Z,48.22
2022-11-16T06:48:56.716Z,51.25
2022-11-16T06:51:25.305Z,56.20
2022-11-16T06:53:55.377Z,53.58
2022-11-16T06:56:23.978Z,50.55
2022-11-16T06:58:57.265Z,48.90
2022-11-16T07:01:27.148Z,47.85
2022-11-16T07:04:00.747Z,54.10
2022-11-16T07:06:28.745Z,48.78
2022-11-16T07:08:59.050Z,49.05
2022-11-16T07:11:31.194Z,56.13
2022-11-16T07:13:59.893Z,55.30
2022-11-16T07:16:29.039Z,60.28
2022-11-16T07:19:02.242Z,59.42
2022-11-16T07:21:33.066Z,56.33
2022-11-16T07:24:05.521Z,60.30
2022-11-16T07:26:33.825Z,60.63
2022-11-16T07:29:15.618Z,50.65
2022-11-16T07:31:59.707Z,48.97
2022-11-16T07:34:53.405Z,54.95
2022-11-16T07:37:22.126Z,58.08
2022-11-16T07:39:51.432Z,53.67
2022-11-16T07:42:19.375Z,56.67
2022-11-16T07:45:07.162Z,52.38
2022-11-16T07:47:39.854Z,57.83
2022-11-16T07:50:11.895Z,56.85
2022-11-16T07:52:39.884Z,53.53
2022-11-16T07:55:12.913Z,50.85
2022-11-16T07:57:42.006Z,48.10
2022-11-16T08:00:11.043Z,60.40
2022-11-16T08:02:41.679Z,44.75
2022-11-16T08:05:16.531Z,46.78
2022-11-16T08:07:44.666Z,46.00
2022-11-16T08:10:14.605Z,48.70
2022-11-16T08:12:42.615Z,47.80
2022-11-16T08:15:14.038Z,47.97
2022-11-16T08:17:42.499Z,55.50
2022-11-16T08:20:13.255Z,46.10
2022-11-16T08:22:42.020Z,45.10
2022-11-16T08:25:10.718Z,46.78
2022-11-16T08:27:41.889Z,47.53
2022-11-16T08:30:11.609Z,45.17
2022-11-16T08:32:42.108Z,44.58
2022-11-16T08:35:11.602Z,41.78
2022-11-16T08:37:39.800Z,43.75
2022-11-16T08:40:09.781Z,41.38
2022-11-16T08:42:43.821Z,38.85
2022-11-16T08:45:13.146Z,37.55
2022-11-16T08:47:42.293Z,35.53
2022-11-16T08:50:10.679Z,36.08
2022-11-16T08:52:39.232Z,31.95
2022-11-16T08:55:07.712Z,29.85
2022-11-16T08:57:35.719Z,29.58
2022-11-16T09:00:11.188Z,28.02
2022-11-16T09:02:39.569Z,25.15
2022-11-16T09:05:11.740Z,23.60
2022-11-16T09:07:40.620Z,18.70
2022-11-16T09:10:09.729Z,14.82
2022-11-16T09:12:38.213Z,13.50
2022-11-16T09:15:07.281Z,12.48
2022-11-16T09:17:39.711Z,12.73
2022-11-16T09:20:08.965Z,10.65
2022-11-16T09:22:37.085Z,10.95
2022-11-16T09:25:05.667Z,11.55
2022-11-16T09:27:33.597Z,13.43
2022-11-16T09:30:01.521Z,12.32
2022-11-16T09:32:29.496Z,14.63
2022-11-16T09:34:58.786Z,11.95
2022-11-16T09:37:26.763Z,12.85
2022-11-16T09:39:54.982Z,15.50
2022-11-16T09:42:34.177Z,16.65
2022-11-16T09:45:06.293Z,13.45
2022-11-16T09:47:42.988Z,13.45
2022-11-16T09:50:32.272Z,11.90
2022-11-16T09:53:10.749Z,9.93
2022-11-16T09:55:46.510Z,12.48
2022-11-16T09:58:17.804Z,12.07
2022-11-16T10:00:54.628Z,11.00
2022-11-16T10:03:22.923Z,12.82
2022-11-16T10:06:00.170Z,12.65
2022-11-16T10:08:40.980Z,10.40
2022-11-16T10:11:30.851Z,10.90
2022-11-16T10:14:09.267Z,13.95
2022-11-16T10:16:44.764Z,11.48
2022-11-16T10:19:18.619Z,11.82
2022-11-16T10:21:57.400Z,8.20
2022-11-16T10:24:41.652Z,10.60
2022-11-16T10:27:25.421Z,13.32
2022-11-16T10:30:03.147Z,10.40
2022-11-16T10:32:34.575Z,9.77
2022-11-16T10:35:09.144Z,10.63
2022-11-16T10:37:42.194Z,12.00
2022-11-16T10:40:25.922Z,9.98
2022-11-16T10:43:02.026Z,10.85
2022-11-16T10:45:36.147Z,11.70
2022-11-16T10:48:20.599Z,9.30
2022-11-16T10:50:51.062Z,8.35
2022-11-16T10:53:29.116Z,9.10
2022-11-16T10:56:17.353Z,10.23
2022-11-16T10:58:53.267Z,9.02
2022-11-16T11:01:33.907Z,8.65
2022-11-16T11:04:15.591Z,8.90
2022-11-16T11:06:44.272Z,8.40
2022-11-16T11:09:23.170Z,8.55
2022-11-16T11:12:27.296Z,9.20
2022-11-16T11:15:00.857Z,10.27
2022-11-16T11:17:29.812Z,8.00
2022-11-16T11:20:03.348Z,9.43
2022-11-16T11:22:32.972Z,9.45
2022-11-16T11:25:04.245Z,9.50
2022-11-16T11:27:34.981Z,10.50
2022-11-16T11:30:03.841Z,11.70
2022-11-16T11:32:40.332Z,9.40
2022-11-16T11:35:23.992Z,9.18
2022-11-16T11:37:55.898Z,9.43
2022-11-16T11:40:26.902Z,10.05
2022-11-16T11:43:00.536Z,10.15
2022-11-16T11:45:36.616Z,9.18
2022-11-16T11:48:22.258Z,9.10
2022-11-16T11:50:53.913Z,10.18
2022-11-16T11:53:38.563Z,8.95
2022-11-16T11:56:11.324Z,8.27
2022-11-16T11:58:41.764Z,7.88
2022-11-16T12:01:42.403Z,8.32
2022-11-16T12:05:04.412Z,7.43
2022-11-16T12:07:50.480Z,11.13
2022-11-16T12:10:27.676Z,7.97
2022-11-16T12:13:12.009Z,8.52
2022-11-16T12:16:02.906Z,8.00
2022-11-16T12:18:52.238Z,7.03
2022-11-16T12:21:28.494Z,8.95
2022-11-16T12:24:10.993Z,9.32
2022-11-16T12:26:46.727Z,6.97
2022-11-16T12:29:26.664Z,8.95
2022-11-16T12:32:10.312Z,6.80
2022-11-16T12:34:52.279Z,8.02
2022-11-16T12:37:27.132Z,3.95
2022-11-16T12:40:09.370Z,4.32
2022-11-16T12:42:46.322Z,3.17
2022-11-16T12:45:28.999Z,3.42
2022-11-16T12:48:23.606Z,2.78
2022-11-16T12:50:57.350Z,2.92
2022-11-16T12:53:48.255Z,3.70
2022-11-16T12:56:24.763Z,2.75
2022-11-16T12:59:05.398Z,2.13
2022-11-16T13:01:38.851Z,4.38
2022-11-16T13:04:11.538Z,2.78
2022-11-16T13:06:45.226Z,3.53
2022-11-16T13:09:17.279Z,2.50
2022-11-16T13:11:48.906Z,1.65
2022-11-16T13:14:19.839Z,1.80
2022-11-16T13:16:50.176Z,2.25
2022-11-16T13:19:19.187Z,3.75
2022-11-16T13:21:53.764Z,2.60
2022-11-16T13:24:31.327Z,3.55
2022-11-16T13:27:13.206Z,1.75
2022-11-16T13:29:47.123Z,1.50
2022-11-16T13:32:23.103Z,1.92
2022-11-16T13:34:52.230Z,2.10
2022-11-16T13:37:42.446Z,1.75
2022-11-16T13:40:20.596Z,2.30
2022-11-16T13:43:18.995Z,1.42
2022-11-16T13:45:58.448Z,1.48
2022-11-16T13:48:32.893Z,1.35
2022-11-16T13:51:03.844Z,1.70
2022-11-16T13:56:28.554Z,2.20
2022-11-16T13:58:58.229Z,1.95
2022-11-16T14:01:26.522Z,2.83
2022-11-16T14:04:36.921Z,2.03
2022-11-16T14:07:06.240Z,3.08
2022-11-16T14:09:54.926Z,2.55
2022-11-16T14:12:56.002Z,1.95
2022-11-16T14:15:35.076Z,2.10
2022-11-16T14:18:23.802Z,5.50
2022-11-16T14:20:57.024Z,2.85
2022-11-16T14:23:36.611Z,2.70
2022-11-16T14:26:13.791Z,2.75
2022-11-16T14:29:05.662Z,4.38
2022-11-16T14:31:48.822Z,1.70
2022-11-16T14:34:19.142Z,1.42
2022-11-16T14:36:48.819Z,1.88
2022-11-16T14:39:27.312Z,2.88
2022-11-16T14:41:57.851Z,2.65
2022-11-16T14:44:30.188Z,2.10
2022-11-16T14:46:58.666Z,1.23
2022-11-16T14:49:28.649Z,2.10
2022-11-16T14:51:59.849Z,4.43
2022-11-16T14:54:36.112Z,2.90
2022-11-16T14:57:05.669Z,2.95
2022-11-16T14:59:33.847Z,5.10
2022-11-16T15:02:13.628Z,1.90
2022-11-16T15:04:41.630Z,1.95
2022-11-16T15:07:09.793Z,5.30
2022-11-16T15:09:41.675Z,5.28
2022-11-16T15:12:34.612Z,2.08
2022-11-16T15:15:06.994Z,2.72
2022-11-16T15:17:35.624Z,3.05
2022-11-16T15:20:15.521Z,3.42
2022-11-16T15:22:45.351Z,3.85
2022-11-16T15:25:28.037Z,4.25
2022-11-16T15:27:57.414Z,4.55
2022-11-16T15:30:27.775Z,3.28
2022-11-16T15:32:55.991Z,2.80
2022-11-16T15:35:25.735Z,3.97
2022-11-16T15:38:05.214Z,3.80
2022-11-16T15:40:36.892Z,5.80
2022-11-16T15:43:06.510Z,2.78
2022-11-16T15:45:35.130Z,3.63
2022-11-16T15:48:04.862Z,6.47
2022-11-16T15:50:33.202Z,2.20
2022-11-16T15:53:01.150Z,2.92
2022-11-16T15:55:37.609Z,2.95
2022-11-16T15:58:12.919Z,3.50
2022-11-16T16:00:41.865Z,3.80
2022-11-16T16:03:21.135Z,2.25
2022-11-16T16:05:49.765Z,2.20
2022-11-16T16:08:27.208Z,3.05
2022-11-16T16:11:05.405Z,2.67
2022-11-16T16:13:36.014Z,1.80
2022-11-16T16:16:30.466Z,3.15
2022-11-16T16:19:06.480Z,2.53
2022-11-16T16:21:44.430Z,3.45
2022-11-16T16:24:36.682Z,1.83
2022-11-16T16:27:11.665Z,3.33
2022-11-16T16:29:39.645Z,2.35
2022-11-16T16:32:10.110Z,1.30
2022-11-16T16:34:42.144Z,1.95
2022-11-16T16:37:12.875Z,1.77
2022-11-16T16:39:42.008Z,1.88
2022-11-16T16:42:13.809Z,1.08
2022-11-16T16:44:42.243Z,1.38
2022-11-16T16:47:10.952Z,1.55
2022-11-16T16:49:39.201Z,1.45
2022-11-16T16:52:08.284Z,1.75
2022-11-16T16:54:36.255Z,1.35
2022-11-16T16:57:04.353Z,1.52
2022-11-16T16:59:33.711Z,3.55
2022-11-16T17:02:01.641Z,3.40
2022-11-16T17:04:29.771Z,2.83
2022-11-16T17:06:57.767Z,3.15
2022-11-16T17:09:25.729Z,2.67
2022-11-16T17:11:53.686Z,2.15
2022-11-16T17:14:24.475Z,2.00
2022-11-16T17:16:53.872Z,2.28
2022-11-16T17:19:21.960Z,1.20
2022-11-16T17:21:51.638Z,1.98
2022-11-16T17:24:19.954Z,1.60
2022-11-16T17:26:48.786Z,1.15
2022-11-16T17:29:16.861Z,2.40
2022-11-16T17:31:47.761Z,2.30
2022-11-16T17:34:19.860Z,2.17
2022-11-16T17:36:47.848Z,1.20
2022-11-16T17:39:15.889Z,2.13
2022-11-16T17:41:45.012Z,1.80
2022-11-16T17:44:17.190Z,1.40
2022-11-16T17:46:48.170Z,1.38
2022-11-16T17:49:17.457Z,2.33
2022-11-16T17:51:45.398Z,1.40
2022-11-16T17:54:13.328Z,1.80
2022-11-16T17:56:41.285Z,1.55
2022-11-16T17:59:09.242Z,1.20
2022-11-16T18:01:40.269Z,1.38
2022-11-16T18:04:10.577Z,1.75
2022-11-16T18:06:39.998Z,2.50
2022-11-16T18:09:07.965Z,1.25
2022-11-16T18:11:35.929Z,1.38
2022-11-16T18:14:05.488Z,1.92
2022-11-16T18:16:34.631Z,4.03
2022-11-16T18:19:04.469Z,3.22
2022-11-16T18:21:33.932Z,2.67
2022-11-16T18:24:03.258Z,1.52
2022-11-16T18:26:31.236Z,2.08
2022-11-16T18:28:59.461Z,3.45
2022-11-16T18:31:27.534Z,3.03
2022-11-16T18:33:55.555Z,5.32
2022-11-16T18:36:23.610Z,3.15
2022-11-16T18:38:52.038Z,1.45
2022-11-16T18:41:23.652Z,2.47
2022-11-16T18:43:53.769Z,2.80
2022-11-16T18:46:23.726Z,3.67
2022-11-16T18:48:52.047Z,3.08
2022-11-16T18:51:21.351Z,2.00
2022-11-16T18:53:49.658Z,1.40
2022-11-16T18:56:18.584Z,2.17
2022-11-16T18:58:50.818Z,1.73
2022-11-16T19:01:21.710Z,1.77
2022-11-16T19:03:49.818Z,2.22
2022-11-16T19:06:19.051Z,1.60
2022-11-16T19:08:54.953Z,1.20
2022-11-16T19:11:24.309Z,1.52
2022-11-16T19:14:00.563Z,1.02
2022-11-16T19:16:29.111Z,3.58
2022-11-16T19:18:57.220Z,2.30
2022-11-16T19:21:25.715Z,1.58
2022-11-16T19:23:58.072Z,1.70
2022-11-16T19:26:28.009Z,1.08
2022-11-16T19:28:59.422Z,1.45
2022-11-16T19:31:29.735Z,3.22
2022-11-16T19:34:02.212Z,2.42
2022-11-16T19:36:31.318Z,1.52
2022-11-16T19:39:00.398Z,3.17
2022-11-16T19:41:29.498Z,1.10
2022-11-16T19:44:01.671Z,1.10
2022-11-16T19:46:32.009Z,1.05
2022-11-16T19:49:01.063Z,1.17
2022-11-16T19:51:32.129Z,1.10
2022-11-16T19:54:03.722Z,3.90
2022-11-16T19:56:36.267Z,2.33
2022-11-16T19:59:07.981Z,4.40
2022-11-16T20:01:36.221Z,1.63
2022-11-16T20:04:06.791Z,1.95
2022-11-16T20:06:35.882Z,2.03
2022-11-16T20:09:08.647Z,4.22
2022-11-16T20:11:38.539Z,6.22
2022-11-16T20:14:13.618Z,4.90
2022-11-16T20:16:43.392Z,1.52
2022-11-16T20:19:12.020Z,1.30
2022-11-16T20:21:42.419Z,6.55
2022-11-16T20:24:15.159Z,1.27
2022-11-16T20:26:44.708Z,1.20
2022-11-16T20:29:17.374Z,3.58
2022-11-16T20:31:46.190Z,1.02
2022-11-16T20:34:19.140Z,1.42
2022-11-16T20:36:50.483Z,1.35
2022-11-16T20:39:21.595Z,1.63
2022-11-16T20:41:51.179Z,2.42
2022-11-16T20:44:22.135Z,1.20
2022-11-16T20:46:52.275Z,1.17
2022-11-16T20:49:20.654Z,0.95
2022-11-16T20:51:50.289Z,0.65
2022-11-16T20:54:18.459Z,0.85
2022-11-16T20:56:48.078Z,2.50
2022-11-16T20:59:17.112Z,2.47
2022-11-16T21:01:48.541Z,1.35
2022-11-16T21:04:17.260Z,0.73
2022-11-16T21:06:45.493Z,2.25
2022-11-16T21:09:15.469Z,0.80
2022-11-16T21:12:01.754Z,0.70
2022-11-16T21:14:29.746Z,0.85
2022-11-16T21:16:59.023Z,0.95
2022-11-16T21:19:27.226Z,1.75
2022-11-16T21:21:55.211Z,0.68
2022-11-16T21:24:24.700Z,2.45
2022-11-16T21:26:53.306Z,2.13
2022-11-16T21:29:25.757Z,2.97
2022-11-16T21:31:54.192Z,0.70
2022-11-16T21:34:24.409Z,0.63
2022-11-16T21:36:54.630Z,0.85
2022-11-16T21:39:22.846Z,1.15
2022-11-16T21:41:50.760Z,4.30
2022-11-16T21:44:18.693Z,3.78
2022-11-16T21:46:46.648Z,2.17
2022-11-16T21:49:14.629Z,1.35
2022-11-16T21:51:43.926Z,0.60
2022-11-16T21:54:11.898Z,1.27
2022-11-16T21:56:39.825Z,1.45
2022-11-16T21:59:07.730Z,1.25
2022-11-16T22:01:49.935Z,1.88
2022-11-16T22:04:35.474Z,1.42
2022-11-16T22:07:22.291Z,0.80
2022-11-16T22:09:50.266Z,1.92
2022-11-16T22:12:18.213Z,1.02
2022-11-16T22:14:46.186Z,1.80
2022-11-16T22:17:16.579Z,1.50
2022-11-16T22:19:44.505Z,1.75
2022-11-16T22:22:14.041Z,1.48
2022-11-16T22:24:42.276Z,2.28
2022-11-16T22:27:10.347Z,1.65
2022-11-16T22:29:38.341Z,3.08
2022-11-16T22:32:06.481Z,1.92
2022-11-16T22:34:34.434Z,1.85
2022-11-16T22:37:02.590Z,3.05
2022-11-16T22:39:31.886Z,1.00
2022-11-16T22:41:59.844Z,1.55
2022-11-16T22:44:27.761Z,0.77
2022-11-16T22:46:55.762Z,1.60
2022-11-16T22:49:24.787Z,2.25
2022-11-16T22:51:52.970Z,1.98
2022-11-16T22:54:25.870Z,3.78
2022-11-16T22:56:57.836Z,1.58
2022-11-16T22:59:25.789Z,1.70
2022-11-16T23:01:53.711Z,1.17
2022-11-16T23:04:21.654Z,1.15
2022-11-16T23:06:49.699Z,0.90
2022-11-16T23:09:17.694Z,0.40
2022-11-16T23:12:03.337Z,0.85
2022-11-16T23:14:50.089Z,0.60
2022-11-16T23:17:20.243Z,0.60
2022-11-16T23:20:20.098Z,0.80
2022-11-16T23:23:05.665Z,0.55
2022-11-16T23:25:51.559Z,0.75
2022-11-16T23:28:20.169Z,0.70
2022-11-16T23:30:49.428Z,0.40
2022-11-16T23:33:17.380Z,0.95
2022-11-16T23:35:45.375Z,0.45
2022-11-16T23:38:13.296Z,1.33
2022-11-16T23:40:41.472Z,0.50
2022-11-16T23:43:29.791Z,0.85
2022-11-16T23:45:59.097Z,0.73
2022-11-16T23:48:27.043Z,0.85
2022-11-16T23:50:57.324Z,0.68
2022-11-16T23:53:25.256Z,1.75
2022-11-16T23:55:53.205Z,0.68
2022-11-16T23:58:21.165Z,0.63
